sensor_id;sensor_type;location;lat;lon;timestamp;pressure;altitude;pressure_sealevel;temperature
18219;BMP180;9234;49.344;11.120;2023-05-20T00:01:23;97689.00;;;15.20
18219;BMP180;9234;49.344;11.120;2023-05-20T00:03:52;97691.00;;;15.20
18219;BMP180;9234;49.344;11.120;2023-05-20T00:06:20;97691.00;;;15.20
18219;BMP180;9234;49.344;11.120;2023-05-20T00:08:48;97692.00;;;15.20
18219;BMP180;9234;49.344;11.120;2023-05-20T00:11:17;97681.00;;;15.10
18219;BMP180;9234;49.344;11.120;2023-05-20T00:13:45;97695.00;;;15.10
18219;BMP180;9234;49.344;11.120;2023-05-20T00:16:13;97685.00;;;15.10
18219;BMP180;9234;49.344;11.120;2023-05-20T00:18:43;97687.00;;;15.10
18219;BMP180;9234;49.344;11.120;2023-05-20T00:21:11;97679.00;;;15.10
18219;BMP180;9234;49.344;11.120;2023-05-20T00:23:40;97684.00;;;15.10
18219;BMP180;9234;49.344;11.120;2023-05-20T00:26:08;97674.00;;;15.10
18219;BMP180;9234;49.344;11.120;2023-05-20T00:28:38;97685.00;;;15.10
18219;BMP180;9234;49.344;11.120;2023-05-20T00:31:06;97686.00;;;15.10
18219;BMP180;9234;49.344;11.120;2023-05-20T00:33:35;97680.00;;;15.10
18219;BMP180;9234;49.344;11.120;2023-05-20T00:36:05;97672.00;;;15.20
18219;BMP180;9234;49.344;11.120;2023-05-20T00:38:34;97681.00;;;15.20
18219;BMP180;9234;49.344;11.120;2023-05-20T00:41:02;97686.00;;;15.20
18219;BMP180;9234;49.344;11.120;2023-05-20T00:43:30;97685.00;;;15.20
18219;BMP180;9234;49.344;11.120;2023-05-20T00:46:00;97690.00;;;15.20
18219;BMP180;9234;49.344;11.120;2023-05-20T00:48:38;97683.00;;;15.20
18219;BMP180;9234;49.344;11.120;2023-05-20T00:51:09;97677.00;;;15.30
18219;BMP180;9234;49.344;11.120;2023-05-20T00:53:38;97677.00;;;15.30
18219;BMP180;9234;49.344;11.120;2023-05-20T00:56:08;97679.00;;;15.30
18219;BMP180;9234;49.344;11.120;2023-05-20T00:58:37;97674.00;;;15.30
18219;BMP180;9234;49.344;11.120;2023-05-20T01:01:05;97665.00;;;15.30
18219;BMP180;9234;49.344;11.120;2023-05-20T01:03:34;97664.00;;;15.30
18219;BMP180;9234;49.344;11.120;2023-05-20T01:06:03;97670.00;;;15.30
18219;BMP180;9234;49.344;11.120;2023-05-20T01:08:33;97674.00;;;15.30
18219;BMP180;9234;49.344;11.120;2023-05-20T01:11:05;97667.00;;;15.30
18219;BMP180;9234;49.344;11.120;2023-05-20T01:13:42;97662.00;;;15.30
18219;BMP180;9234;49.344;11.120;2023-05-20T01:16:11;97674.00;;;15.30
18219;BMP180;9234;49.344;11.120;2023-05-20T01:18:42;97660.00;;;15.30
18219;BMP180;9234;49.344;11.120;2023-05-20T01:21:14;97659.00;;;15.30
18219;BMP180;9234;49.344;11.120;2023-05-20T01:23:44;97656.00;;;15.30
18219;BMP180;9234;49.344;11.120;2023-05-20T01:26:12;97661.00;;;15.30
18219;BMP180;9234;49.344;11.120;2023-05-20T01:28:41;97660.00;;;15.30
18219;BMP180;9234;49.344;11.120;2023-05-20T01:31:18;97649.00;;;15.30
18219;BMP180;9234;49.344;11.120;2023-05-20T01:33:54;97657.00;;;15.30
18219;BMP180;9234;49.344;11.120;2023-05-20T01:36:25;97644.00;;;15.30
18219;BMP180;9234;49.344;11.120;2023-05-20T01:38:56;97657.00;;;15.30
18219;BMP180;9234;49.344;11.120;2023-05-20T01:41:27;97659.00;;;15.30
18219;BMP180;9234;49.344;11.120;2023-05-20T01:43:57;97656.00;;;15.30
18219;BMP180;9234;49.344;11.120;2023-05-20T01:46:25;97657.00;;;15.30
18219;BMP180;9234;49.344;11.120;2023-05-20T01:48:54;97654.00;;;15.20
18219;BMP180;9234;49.344;11.120;2023-05-20T01:51:22;97647.00;;;15.20
18219;BMP180;9234;49.344;11.120;2023-05-20T01:53:50;97643.00;;;15.20
18219;BMP180;9234;49.344;11.120;2023-05-20T01:56:20;97636.00;;;15.20
18219;BMP180;9234;49.344;11.120;2023-05-20T01:58:48;97644.00;;;15.10
18219;BMP180;9234;49.344;11.120;2023-05-20T02:01:17;97639.00;;;15.10
18219;BMP180;9234;49.344;11.120;2023-05-20T02:03:45;97637.00;;;15.00
18219;BMP180;9234;49.344;11.120;2023-05-20T02:06:13;97624.00;;;15.00
18219;BMP180;9234;49.344;11.120;2023-05-20T02:08:41;97625.00;;;14.90
18219;BMP180;9234;49.344;11.120;2023-05-20T02:11:10;97624.00;;;14.80
18219;BMP180;9234;49.344;11.120;2023-05-20T02:13:39;97625.00;;;14.70
18219;BMP180;9234;49.344;11.120;2023-05-20T02:16:08;97613.00;;;14.60
18219;BMP180;9234;49.344;11.120;2023-05-20T02:18:36;97620.00;;;14.60
18219;BMP180;9234;49.344;11.120;2023-05-20T02:21:05;97609.00;;;14.50
18219;BMP180;9234;49.344;11.120;2023-05-20T02:23:33;97611.00;;;14.50
18219;BMP180;9234;49.344;11.120;2023-05-20T02:26:02;97610.00;;;14.40
18219;BMP180;9234;49.344;11.120;2023-05-20T02:28:30;97616.00;;;14.40
18219;BMP180;9234;49.344;11.120;2023-05-20T02:31:00;97625.00;;;14.40
18219;BMP180;9234;49.344;11.120;2023-05-20T02:33:30;97620.00;;;14.40
18219;BMP180;9234;49.344;11.120;2023-05-20T02:35:59;97620.00;;;14.40
18219;BMP180;9234;49.344;11.120;2023-05-20T02:38:28;97619.00;;;14.30
18219;BMP180;9234;49.344;11.120;2023-05-20T02:40:57;97628.00;;;14.30
18219;BMP180;9234;49.344;11.120;2023-05-20T02:43:25;97630.00;;;14.30
18219;BMP180;9234;49.344;11.120;2023-05-20T02:45:54;97634.00;;;14.30
18219;BMP180;9234;49.344;11.120;2023-05-20T02:48:23;97635.00;;;14.30
18219;BMP180;9234;49.344;11.120;2023-05-20T02:50:52;97634.00;;;14.30
18219;BMP180;9234;49.344;11.120;2023-05-20T02:53:20;97634.00;;;14.20
18219;BMP180;9234;49.344;11.120;2023-05-20T02:55:49;97630.00;;;14.20
18219;BMP180;9234;49.344;11.120;2023-05-20T02:58:17;97638.00;;;14.20
18219;BMP180;9234;49.344;11.120;2023-05-20T03:00:52;97637.00;;;14.20
18219;BMP180;9234;49.344;11.120;2023-05-20T03:03:20;97623.00;;;14.20
18219;BMP180;9234;49.344;11.120;2023-05-20T03:05:50;97637.00;;;14.20
18219;BMP180;9234;49.344;11.120;2023-05-20T03:08:21;97641.00;;;14.20
18219;BMP180;9234;49.344;11.120;2023-05-20T03:10:49;97641.00;;;14.10
18219;BMP180;9234;49.344;11.120;2023-05-20T03:13:17;97637.00;;;14.10
18219;BMP180;9234;49.344;11.120;2023-05-20T03:15:46;97636.00;;;14.10
18219;BMP180;9234;49.344;11.120;2023-05-20T03:18:14;97646.00;;;14.10
18219;BMP180;9234;49.344;11.120;2023-05-20T03:20:45;97649.00;;;14.10
18219;BMP180;9234;49.344;11.120;2023-05-20T03:23:15;97649.00;;;14.10
18219;BMP180;9234;49.344;11.120;2023-05-20T03:25:43;97650.00;;;14.10
18219;BMP180;9234;49.344;11.120;2023-05-20T03:28:12;97639.00;;;14.10
18219;BMP180;9234;49.344;11.120;2023-05-20T03:30:40;97632.00;;;14.10
18219;BMP180;9234;49.344;11.120;2023-05-20T03:33:09;97647.00;;;14.10
18219;BMP180;9234;49.344;11.120;2023-05-20T03:35:38;97644.00;;;14.00
18219;BMP180;9234;49.344;11.120;2023-05-20T03:38:06;97633.00;;;14.00
18219;BMP180;9234;49.344;11.120;2023-05-20T03:40:38;97654.00;;;14.00
18219;BMP180;9234;49.344;11.120;2023-05-20T03:43:07;97639.00;;;14.00
18219;BMP180;9234;49.344;11.120;2023-05-20T03:45:35;97647.00;;;14.00
18219;BMP180;9234;49.344;11.120;2023-05-20T03:48:06;97645.00;;;14.00
18219;BMP180;9234;49.344;11.120;2023-05-20T03:50:35;97635.00;;;14.00
18219;BMP180;9234;49.344;11.120;2023-05-20T03:53:03;97640.00;;;14.00
18219;BMP180;9234;49.344;11.120;2023-05-20T03:55:41;97650.00;;;14.00
18219;BMP180;9234;49.344;11.120;2023-05-20T03:58:11;97651.00;;;14.00
18219;BMP180;9234;49.344;11.120;2023-05-20T04:00:41;97645.00;;;14.00
18219;BMP180;9234;49.344;11.120;2023-05-20T04:03:09;97642.00;;;14.00
18219;BMP180;9234;49.344;11.120;2023-05-20T04:05:38;97628.00;;;14.00
18219;BMP180;9234;49.344;11.120;2023-05-20T04:08:14;97638.00;;;14.00
18219;BMP180;9234;49.344;11.120;2023-05-20T04:10:46;97637.00;;;14.00
18219;BMP180;9234;49.344;11.120;2023-05-20T04:13:14;97637.00;;;14.00
18219;BMP180;9234;49.344;11.120;2023-05-20T04:15:43;97634.00;;;14.00
18219;BMP180;9234;49.344;11.120;2023-05-20T04:18:11;97646.00;;;14.00
18219;BMP180;9234;49.344;11.120;2023-05-20T04:20:41;97646.00;;;14.00
18219;BMP180;9234;49.344;11.120;2023-05-20T04:23:11;97640.00;;;14.10
18219;BMP180;9234;49.344;11.120;2023-05-20T04:25:39;97639.00;;;14.00
18219;BMP180;9234;49.344;11.120;2023-05-20T04:28:09;97633.00;;;14.10
18219;BMP180;9234;49.344;11.120;2023-05-20T04:30:40;97625.00;;;14.10
18219;BMP180;9234;49.344;11.120;2023-05-20T04:33:09;97648.00;;;14.10
18219;BMP180;9234;49.344;11.120;2023-05-20T04:35:37;97640.00;;;14.10
18219;BMP180;9234;49.344;11.120;2023-05-20T04:38:08;97644.00;;;14.10
18219;BMP180;9234;49.344;11.120;2023-05-20T04:40:38;97636.00;;;14.10
18219;BMP180;9234;49.344;11.120;2023-05-20T04:43:07;97630.00;;;14.20
18219;BMP180;9234;49.344;11.120;2023-05-20T04:45:36;97636.00;;;14.20
18219;BMP180;9234;49.344;11.120;2023-05-20T04:48:06;97630.00;;;14.30
18219;BMP180;9234;49.344;11.120;2023-05-20T04:50:36;97628.00;;;14.30
18219;BMP180;9234;49.344;11.120;2023-05-20T04:53:06;97628.00;;;14.30
18219;BMP180;9234;49.344;11.120;2023-05-20T04:55:34;97629.00;;;14.40
18219;BMP180;9234;49.344;11.120;2023-05-20T04:58:05;97636.00;;;14.40
18219;BMP180;9234;49.344;11.120;2023-05-20T05:00:35;97632.00;;;14.50
18219;BMP180;9234;49.344;11.120;2023-05-20T05:03:04;97620.00;;;14.50
18219;BMP180;9234;49.344;11.120;2023-05-20T05:05:34;97624.00;;;14.60
18219;BMP180;9234;49.344;11.120;2023-05-20T05:08:03;97625.00;;;14.60
18219;BMP180;9234;49.344;11.120;2023-05-20T05:10:34;97623.00;;;14.70
18219;BMP180;9234;49.344;11.120;2023-05-20T05:13:03;97629.00;;;14.80
18219;BMP180;9234;49.344;11.120;2023-05-20T05:15:32;97626.00;;;14.80
18219;BMP180;9234;49.344;11.120;2023-05-20T05:18:03;97622.00;;;14.90
18219;BMP180;9234;49.344;11.120;2023-05-20T05:20:33;97615.00;;;15.00
18219;BMP180;9234;49.344;11.120;2023-05-20T05:23:01;97621.00;;;15.10
18219;BMP180;9234;49.344;11.120;2023-05-20T05:25:30;97608.00;;;15.20
18219;BMP180;9234;49.344;11.120;2023-05-20T05:27:59;97628.00;;;15.30
18219;BMP180;9234;49.344;11.120;2023-05-20T05:30:27;97613.00;;;15.40
18219;BMP180;9234;49.344;11.120;2023-05-20T05:32:55;97615.00;;;15.50
18219;BMP180;9234;49.344;11.120;2023-05-20T05:35:25;97611.00;;;15.60
18219;BMP180;9234;49.344;11.120;2023-05-20T05:37:54;97605.00;;;15.70
18219;BMP180;9234;49.344;11.120;2023-05-20T05:40:22;97615.00;;;15.80
18219;BMP180;9234;49.344;11.120;2023-05-20T05:42:50;97603.00;;;15.80
18219;BMP180;9234;49.344;11.120;2023-05-20T05:45:18;97615.00;;;15.90
18219;BMP180;9234;49.344;11.120;2023-05-20T05:47:47;97608.00;;;15.90
18219;BMP180;9234;49.344;11.120;2023-05-20T05:50:15;97611.00;;;16.00
18219;BMP180;9234;49.344;11.120;2023-05-20T05:52:45;97609.00;;;16.00
18219;BMP180;9234;49.344;11.120;2023-05-20T05:55:14;97603.00;;;16.10
18219;BMP180;9234;49.344;11.120;2023-05-20T05:57:42;97607.00;;;16.10
18219;BMP180;9234;49.344;11.120;2023-05-20T06:00:15;97614.00;;;16.20
18219;BMP180;9234;49.344;11.120;2023-05-20T06:02:44;97605.00;;;16.20
18219;BMP180;9234;49.344;11.120;2023-05-20T06:05:24;97609.00;;;16.30
18219;BMP180;9234;49.344;11.120;2023-05-20T06:07:56;97603.00;;;16.40
18219;BMP180;9234;49.344;11.120;2023-05-20T06:10:25;97599.00;;;16.40
18219;BMP180;9234;49.344;11.120;2023-05-20T06:12:54;97586.00;;;16.50
18219;BMP180;9234;49.344;11.120;2023-05-20T06:15:23;97595.00;;;16.60
18219;BMP180;9234;49.344;11.120;2023-05-20T06:17:51;97585.00;;;16.60
18219;BMP180;9234;49.344;11.120;2023-05-20T06:20:19;97591.00;;;16.70
18219;BMP180;9234;49.344;11.120;2023-05-20T06:22:48;97590.00;;;16.70
18219;BMP180;9234;49.344;11.120;2023-05-20T06:25:17;97596.00;;;16.80
18219;BMP180;9234;49.344;11.120;2023-05-20T06:27:46;97587.00;;;16.80
18219;BMP180;9234;49.344;11.120;2023-05-20T06:30:18;97596.00;;;16.90
18219;BMP180;9234;49.344;11.120;2023-05-20T06:32:47;97579.00;;;17.00
18219;BMP180;9234;49.344;11.120;2023-05-20T06:35:16;97587.00;;;17.10
18219;BMP180;9234;49.344;11.120;2023-05-20T06:37:44;97577.00;;;17.10
18219;BMP180;9234;49.344;11.120;2023-05-20T06:40:13;97583.00;;;17.20
18219;BMP180;9234;49.344;11.120;2023-05-20T06:42:43;97577.00;;;17.20
18219;BMP180;9234;49.344;11.120;2023-05-20T06:45:13;97578.00;;;17.30
18219;BMP180;9234;49.344;11.120;2023-05-20T06:47:48;97583.00;;;17.40
18219;BMP180;9234;49.344;11.120;2023-05-20T06:50:16;97582.00;;;17.50
18219;BMP180;9234;49.344;11.120;2023-05-20T06:52:45;97568.00;;;17.60
18219;BMP180;9234;49.344;11.120;2023-05-20T06:55:13;97588.00;;;17.70
18219;BMP180;9234;49.344;11.120;2023-05-20T06:57:43;97572.00;;;17.80
18219;BMP180;9234;49.344;11.120;2023-05-20T07:00:13;97572.00;;;17.90
18219;BMP180;9234;49.344;11.120;2023-05-20T07:02:42;97569.00;;;18.00
18219;BMP180;9234;49.344;11.120;2023-05-20T07:05:12;97567.00;;;18.10
18219;BMP180;9234;49.344;11.120;2023-05-20T07:07:40;97564.00;;;18.20
18219;BMP180;9234;49.344;11.120;2023-05-20T07:10:09;97561.00;;;18.20
18219;BMP180;9234;49.344;11.120;2023-05-20T07:12:37;97563.00;;;18.30
18219;BMP180;9234;49.344;11.120;2023-05-20T07:15:08;97573.00;;;18.40
18219;BMP180;9234;49.344;11.120;2023-05-20T07:17:38;97561.00;;;18.50
18219;BMP180;9234;49.344;11.120;2023-05-20T07:20:07;97557.00;;;18.60
18219;BMP180;9234;49.344;11.120;2023-05-20T07:22:36;97552.00;;;18.70
18219;BMP180;9234;49.344;11.120;2023-05-20T07:25:19;97549.00;;;18.80
18219;BMP180;9234;49.344;11.120;2023-05-20T07:27:48;97552.00;;;18.90
18219;BMP180;9234;49.344;11.120;2023-05-20T07:30:17;97548.00;;;19.00
18219;BMP180;9234;49.344;11.120;2023-05-20T07:32:56;97539.00;;;19.10
18219;BMP180;9234;49.344;11.120;2023-05-20T07:35:24;97550.00;;;19.20
18219;BMP180;9234;49.344;11.120;2023-05-20T07:37:53;97535.00;;;19.30
18219;BMP180;9234;49.344;11.120;2023-05-20T07:40:21;97545.00;;;19.50
18219;BMP180;9234;49.344;11.120;2023-05-20T07:42:50;97547.00;;;19.50
18219;BMP180;9234;49.344;11.120;2023-05-20T07:45:20;97538.00;;;19.60
18219;BMP180;9234;49.344;11.120;2023-05-20T07:47:49;97540.00;;;19.70
18219;BMP180;9234;49.344;11.120;2023-05-20T07:50:17;97541.00;;;19.80
18219;BMP180;9234;49.344;11.120;2023-05-20T07:52:46;97533.00;;;19.80
18219;BMP180;9234;49.344;11.120;2023-05-20T07:55:21;97556.00;;;20.00
18219;BMP180;9234;49.344;11.120;2023-05-20T07:57:50;97546.00;;;20.10
18219;BMP180;9234;49.344;11.120;2023-05-20T08:00:20;97543.00;;;20.20
18219;BMP180;9234;49.344;11.120;2023-05-20T08:02:49;97534.00;;;20.40
18219;BMP180;9234;49.344;11.120;2023-05-20T08:05:25;97554.00;;;20.50
18219;BMP180;9234;49.344;11.120;2023-05-20T08:07:53;97545.00;;;20.70
18219;BMP180;9234;49.344;11.120;2023-05-20T08:10:25;97526.00;;;20.80
18219;BMP180;9234;49.344;11.120;2023-05-20T08:12:54;97519.00;;;21.00
18219;BMP180;9234;49.344;11.120;2023-05-20T08:15:23;97527.00;;;21.10
18219;BMP180;9234;49.344;11.120;2023-05-20T08:17:52;97522.00;;;21.20
18219;BMP180;9234;49.344;11.120;2023-05-20T08:20:21;97513.00;;;21.20
18219;BMP180;9234;49.344;11.120;2023-05-20T08:22:49;97514.00;;;21.30
18219;BMP180;9234;49.344;11.120;2023-05-20T08:25:17;97518.00;;;21.40
18219;BMP180;9234;49.344;11.120;2023-05-20T08:27:46;97522.00;;;21.60
18219;BMP180;9234;49.344;11.120;2023-05-20T08:30:15;97515.00;;;21.80
18219;BMP180;9234;49.344;11.120;2023-05-20T08:32:45;97524.00;;;21.90
18219;BMP180;9234;49.344;11.120;2023-05-20T08:35:14;97521.00;;;22.00
18219;BMP180;9234;49.344;11.120;2023-05-20T08:37:43;97499.00;;;22.20
18219;BMP180;9234;49.344;11.120;2023-05-20T08:40:12;97503.00;;;22.50
18219;BMP180;9234;49.344;11.120;2023-05-20T08:42:41;97509.00;;;22.60
18219;BMP180;9234;49.344;11.120;2023-05-20T08:45:14;97517.00;;;22.50
18219;BMP180;9234;49.344;11.120;2023-05-20T08:47:46;97504.00;;;22.70
18219;BMP180;9234;49.344;11.120;2023-05-20T08:50:15;97513.00;;;22.70
18219;BMP180;9234;49.344;11.120;2023-05-20T08:52:45;97492.00;;;22.70
18219;BMP180;9234;49.344;11.120;2023-05-20T08:55:17;97495.00;;;22.60
18219;BMP180;9234;49.344;11.120;2023-05-20T08:57:49;97502.00;;;22.90
18219;BMP180;9234;49.344;11.120;2023-05-20T09:00:18;97502.00;;;23.20
18219;BMP180;9234;49.344;11.120;2023-05-20T09:02:49;97512.00;;;23.40
18219;BMP180;9234;49.344;11.120;2023-05-20T09:05:18;97511.00;;;23.70
18219;BMP180;9234;49.344;11.120;2023-05-20T09:07:47;97497.00;;;24.00
18219;BMP180;9234;49.344;11.120;2023-05-20T09:10:15;97495.00;;;24.00
18219;BMP180;9234;49.344;11.120;2023-05-20T09:12:44;97494.00;;;24.10
18219;BMP180;9234;49.344;11.120;2023-05-20T09:15:12;97504.00;;;24.30
18219;BMP180;9234;49.344;11.120;2023-05-20T09:17:40;97495.00;;;24.60
18219;BMP180;9234;49.344;11.120;2023-05-20T09:20:11;97494.00;;;24.90
18219;BMP180;9234;49.344;11.120;2023-05-20T09:22:40;97509.00;;;25.00
18219;BMP180;9234;49.344;11.120;2023-05-20T09:25:08;97503.00;;;25.20
18219;BMP180;9234;49.344;11.120;2023-05-20T09:27:39;97505.00;;;25.40
18219;BMP180;9234;49.344;11.120;2023-05-20T09:30:08;97525.00;;;25.40
18219;BMP180;9234;49.344;11.120;2023-05-20T09:32:38;97503.00;;;25.20
18219;BMP180;9234;49.344;11.120;2023-05-20T09:35:07;97514.00;;;25.20
18219;BMP180;9234;49.344;11.120;2023-05-20T09:37:42;97504.00;;;25.30
18219;BMP180;9234;49.344;11.120;2023-05-20T09:40:14;97510.00;;;25.60
18219;BMP180;9234;49.344;11.120;2023-05-20T09:42:50;97514.00;;;26.10
18219;BMP180;9234;49.344;11.120;2023-05-20T09:45:20;97509.00;;;26.50
18219;BMP180;9234;49.344;11.120;2023-05-20T09:47:50;97498.00;;;26.70
18219;BMP180;9234;49.344;11.120;2023-05-20T09:50:21;97495.00;;;26.90
18219;BMP180;9234;49.344;11.120;2023-05-20T09:52:53;97494.00;;;27.20
18219;BMP180;9234;49.344;11.120;2023-05-20T09:55:24;97488.00;;;27.30
18219;BMP180;9234;49.344;11.120;2023-05-20T09:57:52;97482.00;;;27.30
18219;BMP180;9234;49.344;11.120;2023-05-20T10:00:21;97495.00;;;27.30
18219;BMP180;9234;49.344;11.120;2023-05-20T10:02:51;97490.00;;;27.50
18219;BMP180;9234;49.344;11.120;2023-05-20T10:05:23;97498.00;;;27.90
18219;BMP180;9234;49.344;11.120;2023-05-20T10:08:21;97483.00;;;28.30
18219;BMP180;9234;49.344;11.120;2023-05-20T10:11:06;97476.00;;;28.50
18219;BMP180;9234;49.344;11.120;2023-05-20T10:13:59;97481.00;;;28.70
18219;BMP180;9234;49.344;11.120;2023-05-20T10:16:40;97480.00;;;28.70
18219;BMP180;9234;49.344;11.120;2023-05-20T10:19:26;97479.00;;;28.70
18219;BMP180;9234;49.344;11.120;2023-05-20T10:22:00;97473.00;;;28.60
18219;BMP180;9234;49.344;11.120;2023-05-20T10:24:32;97476.00;;;28.70
18219;BMP180;9234;49.344;11.120;2023-05-20T10:27:03;97478.00;;;28.90
18219;BMP180;9234;49.344;11.120;2023-05-20T10:29:43;97466.00;;;28.90
18219;BMP180;9234;49.344;11.120;2023-05-20T10:32:22;97452.00;;;28.60
18219;BMP180;9234;49.344;11.120;2023-05-20T10:34:51;97468.00;;;28.20
18219;BMP180;9234;49.344;11.120;2023-05-20T10:37:26;97451.00;;;27.90
18219;BMP180;9234;49.344;11.120;2023-05-20T10:40:11;97461.00;;;27.70
18219;BMP180;9234;49.344;11.120;2023-05-20T10:42:41;97464.00;;;27.70
18219;BMP180;9234;49.344;11.120;2023-05-20T10:45:22;97458.00;;;27.70
18219;BMP180;9234;49.344;11.120;2023-05-20T10:47:54;97462.00;;;27.80
18219;BMP180;9234;49.344;11.120;2023-05-20T10:50:32;97462.00;;;27.90
18219;BMP180;9234;49.344;11.120;2023-05-20T10:53:04;97462.00;;;27.90
18219;BMP180;9234;49.344;11.120;2023-05-20T10:55:52;97455.00;;;28.00
18219;BMP180;9234;49.344;11.120;2023-05-20T10:58:21;97457.00;;;27.90
18219;BMP180;9234;49.344;11.120;2023-05-20T11:00:54;97455.00;;;27.80
18219;BMP180;9234;49.344;11.120;2023-05-20T11:03:23;97446.00;;;27.70
18219;BMP180;9234;49.344;11.120;2023-05-20T11:05:51;97445.00;;;27.70
18219;BMP180;9234;49.344;11.120;2023-05-20T11:08:19;97437.00;;;27.70
18219;BMP180;9234;49.344;11.120;2023-05-20T11:10:56;97429.00;;;27.90
18219;BMP180;9234;49.344;11.120;2023-05-20T11:13:25;97433.00;;;28.20
18219;BMP180;9234;49.344;11.120;2023-05-20T11:15:54;97425.00;;;28.50
18219;BMP180;9234;49.344;11.120;2023-05-20T11:18:22;97429.00;;;28.80
18219;BMP180;9234;49.344;11.120;2023-05-20T11:20:51;97426.00;;;29.10
18219;BMP180;9234;49.344;11.120;2023-05-20T11:23:20;97415.00;;;29.10
18219;BMP180;9234;49.344;11.120;2023-05-20T11:25:51;97426.00;;;29.20
18219;BMP180;9234;49.344;11.120;2023-05-20T11:28:21;97417.00;;;29.20
18219;BMP180;9234;49.344;11.120;2023-05-20T11:30:51;97428.00;;;29.30
18219;BMP180;9234;49.344;11.120;2023-05-20T11:33:19;97430.00;;;29.30
18219;BMP180;9234;49.344;11.120;2023-05-20T11:35:51;97418.00;;;29.30
18219;BMP180;9234;49.344;11.120;2023-05-20T11:38:20;97418.00;;;29.50
18219;BMP180;9234;49.344;11.120;2023-05-20T11:40:53;97425.00;;;29.80
18219;BMP180;9234;49.344;11.120;2023-05-20T11:43:24;97424.00;;;29.90
18219;BMP180;9234;49.344;11.120;2023-05-20T11:45:55;97407.00;;;29.70
18219;BMP180;9234;49.344;11.120;2023-05-20T11:48:25;97415.00;;;29.40
18219;BMP180;9234;49.344;11.120;2023-05-20T11:50:55;97414.00;;;29.20
18219;BMP180;9234;49.344;11.120;2023-05-20T11:53:27;97394.00;;;28.90
18219;BMP180;9234;49.344;11.120;2023-05-20T11:55:58;97405.00;;;28.80
18219;BMP180;9234;49.344;11.120;2023-05-20T11:58:30;97408.00;;;28.90
18219;BMP180;9234;49.344;11.120;2023-05-20T12:00:58;97416.00;;;28.90
18219;BMP180;9234;49.344;11.120;2023-05-20T12:03:47;97419.00;;;29.10
18219;BMP180;9234;49.344;11.120;2023-05-20T12:06:16;97409.00;;;29.20
18219;BMP180;9234;49.344;11.120;2023-05-20T12:08:44;97420.00;;;29.20
18219;BMP180;9234;49.344;11.120;2023-05-20T12:11:13;97411.00;;;29.10
18219;BMP180;9234;49.344;11.120;2023-05-20T12:13:43;97405.00;;;29.10
18219;BMP180;9234;49.344;11.120;2023-05-20T12:16:11;97401.00;;;29.00
18219;BMP180;9234;49.344;11.120;2023-05-20T12:18:39;97409.00;;;28.90
18219;BMP180;9234;49.344;11.120;2023-05-20T12:21:08;97389.00;;;28.60
18219;BMP180;9234;49.344;11.120;2023-05-20T12:23:36;97401.00;;;28.20
18219;BMP180;9234;49.344;11.120;2023-05-20T12:26:05;97404.00;;;28.00
18219;BMP180;9234;49.344;11.120;2023-05-20T12:28:33;97414.00;;;27.80
18219;BMP180;9234;49.344;11.120;2023-05-20T12:31:03;97409.00;;;27.60
18219;BMP180;9234;49.344;11.120;2023-05-20T12:33:31;97403.00;;;27.60
18219;BMP180;9234;49.344;11.120;2023-05-20T12:36:00;97400.00;;;27.60
18219;BMP180;9234;49.344;11.120;2023-05-20T12:38:28;97395.00;;;27.50
18219;BMP180;9234;49.344;11.120;2023-05-20T12:40:57;97399.00;;;27.60
18219;BMP180;9234;49.344;11.120;2023-05-20T12:43:25;97396.00;;;27.60
18219;BMP180;9234;49.344;11.120;2023-05-20T12:45:53;97395.00;;;27.50
18219;BMP180;9234;49.344;11.120;2023-05-20T12:48:23;97390.00;;;27.50
18219;BMP180;9234;49.344;11.120;2023-05-20T12:50:51;97405.00;;;27.50
18219;BMP180;9234;49.344;11.120;2023-05-20T12:53:19;97395.00;;;27.80
18219;BMP180;9234;49.344;11.120;2023-05-20T12:55:48;97401.00;;;28.30
18219;BMP180;9234;49.344;11.120;2023-05-20T12:58:16;97393.00;;;29.00
18219;BMP180;9234;49.344;11.120;2023-05-20T13:00:45;97390.00;;;29.90
18219;BMP180;9234;49.344;11.120;2023-05-20T13:03:13;97385.00;;;30.40
18219;BMP180;9234;49.344;11.120;2023-05-20T13:05:43;97386.00;;;31.20
18219;BMP180;9234;49.344;11.120;2023-05-20T13:08:11;97396.00;;;32.20
18219;BMP180;9234;49.344;11.120;2023-05-20T13:10:41;97395.00;;;32.70
18219;BMP180;9234;49.344;11.120;2023-05-20T13:13:09;97395.00;;;32.80
18219;BMP180;9234;49.344;11.120;2023-05-20T13:15:38;97393.00;;;32.90
18219;BMP180;9234;49.344;11.120;2023-05-20T13:18:06;97380.00;;;32.50
18219;BMP180;9234;49.344;11.120;2023-05-20T13:20:36;97379.00;;;31.90
18219;BMP180;9234;49.344;11.120;2023-05-20T13:23:06;97377.00;;;31.50
18219;BMP180;9234;49.344;11.120;2023-05-20T13:25:35;97378.00;;;31.20
18219;BMP180;9234;49.344;11.120;2023-05-20T13:28:04;97386.00;;;30.80
18219;BMP180;9234;49.344;11.120;2023-05-20T13:30:33;97383.00;;;30.50
18219;BMP180;9234;49.344;11.120;2023-05-20T13:33:02;97385.00;;;30.20
18219;BMP180;9234;49.344;11.120;2023-05-20T13:35:31;97371.00;;;29.90
18219;BMP180;9234;49.344;11.120;2023-05-20T13:37:59;97371.00;;;29.80
18219;BMP180;9234;49.344;11.120;2023-05-20T13:40:29;97380.00;;;29.60
18219;BMP180;9234;49.344;11.120;2023-05-20T13:42:57;97369.00;;;29.60
18219;BMP180;9234;49.344;11.120;2023-05-20T13:45:25;97368.00;;;29.60
18219;BMP180;9234;49.344;11.120;2023-05-20T13:47:55;97372.00;;;29.60
18219;BMP180;9234;49.344;11.120;2023-05-20T13:50:24;97365.00;;;29.40
18219;BMP180;9234;49.344;11.120;2023-05-20T13:52:52;97363.00;;;29.30
18219;BMP180;9234;49.344;11.120;2023-05-20T13:55:21;97366.00;;;29.10
18219;BMP180;9234;49.344;11.120;2023-05-20T13:57:52;97363.00;;;28.90
18219;BMP180;9234;49.344;11.120;2023-05-20T14:00:21;97350.00;;;28.70
18219;BMP180;9234;49.344;11.120;2023-05-20T14:02:49;97345.00;;;28.50
18219;BMP180;9234;49.344;11.120;2023-05-20T14:05:18;97354.00;;;28.30
18219;BMP180;9234;49.344;11.120;2023-05-20T14:07:47;97343.00;;;28.20
18219;BMP180;9234;49.344;11.120;2023-05-20T14:10:15;97331.00;;;28.00
18219;BMP180;9234;49.344;11.120;2023-05-20T14:12:43;97330.00;;;27.80
18219;BMP180;9234;49.344;11.120;2023-05-20T14:15:15;97333.00;;;27.70
18219;BMP180;9234;49.344;11.120;2023-05-20T14:17:44;97332.00;;;27.70
18219;BMP180;9234;49.344;11.120;2023-05-20T14:20:12;97327.00;;;27.70
18219;BMP180;9234;49.344;11.120;2023-05-20T14:22:40;97328.00;;;27.80
18219;BMP180;9234;49.344;11.120;2023-05-20T14:25:09;97332.00;;;27.90